sensor_id;sensor_type;location;lat;lon;timestamp;pressure;altitude;pressure_sealevel;temperature;humidity
37174;BME280;23068;51.430;5.540;2022-10-31T00:03:39;102038.41;;;12.65;100.00
37174;BME280;23068;51.430;5.540;2022-10-31T00:09:39;102036.69;;;12.64;100.00
37174;BME280;23068;51.430;5.540;2022-10-31T00:15:40;102035.84;;;12.63;100.00
37174;BME280;23068;51.430;5.540;2022-10-31T00:21:41;102040.22;;;12.65;100.00
37174;BME280;23068;51.430;5.540;2022-10-31T00:27:41;102041.78;;;12.56;100.00
37174;BME280;23068;51.430;5.540;2022-10-31T00:33:41;102032.28;;;12.52;100.00
37174;BME280;23068;51.430;5.540;2022-10-31T00:39:42;102036.47;;;12.43;100.00
37174;BME280;23068;51.430;5.540;2022-10-31T00:45:42;102020.16;;;12.46;100.00
37174;BME280;23068;51.430;5.540;2022-10-31T00:51:43;102028.75;;;12.27;100.00
37174;BME280;23068;51.430;5.540;2022-10-31T00:57:46;102025.47;;;12.35;100.00
37174;BME280;23068;51.430;5.540;2022-10-31T01:03:46;102025.72;;;12.32;100.00
37174;BME280;23068;51.430;5.540;2022-10-31T01:09:46;102042.81;;;12.31;100.00
37174;BME280;23068;51.430;5.540;2022-10-31T01:15:53;102027.56;;;12.31;100.00
37174;BME280;23068;51.430;5.540;2022-10-31T01:21:54;102012.03;;;12.24;100.00
37174;BME280;23068;51.430;5.540;2022-10-31T01:27:54;102006.88;;;12.21;100.00
37174;BME280;23068;51.430;5.540;2022-10-31T01:33:55;102017.44;;;12.11;100.00
37174;BME280;23068;51.430;5.540;2022-10-31T01:39:55;102016.34;;;12.14;100.00
37174;BME280;23068;51.430;5.540;2022-10-31T01:45:56;102025.66;;;11.97;100.00
37174;BME280;23068;51.430;5.540;2022-10-31T01:52:00;102026.75;;;11.82;100.00
37174;BME280;23068;51.430;5.540;2022-10-31T01:58:11;102024.16;;;11.80;100.00
37174;BME280;23068;51.430;5.540;2022-10-31T02:04:12;102019.25;;;11.74;100.00
37174;BME280;23068;51.430;5.540;2022-10-31T02:10:12;102007.06;;;11.70;100.00
37174;BME280;23068;51.430;5.540;2022-10-31T02:16:13;102004.28;;;11.59;100.00
37174;BME280;23068;51.430;5.540;2022-10-31T02:28:33;102009.34;;;11.50;100.00
37174;BME280;23068;51.430;5.540;2022-10-31T02:41:35;102018.00;;;11.54;100.00
37174;BME280;23068;51.430;5.540;2022-10-31T02:47:37;102008.63;;;11.48;100.00
37174;BME280;23068;51.430;5.540;2022-10-31T02:53:38;101996.50;;;11.43;100.00
37174;BME280;23068;51.430;5.540;2022-10-31T02:59:42;101992.75;;;11.45;100.00
37174;BME280;23068;51.430;5.540;2022-10-31T03:06:06;101995.78;;;11.41;100.00
37174;BME280;23068;51.430;5.540;2022-10-31T03:12:14;101994.25;;;11.49;100.00
37174;BME280;23068;51.430;5.540;2022-10-31T03:18:28;101994.78;;;11.55;100.00
37174;BME280;23068;51.430;5.540;2022-10-31T03:24:34;102003.44;;;11.58;100.00
37174;BME280;23068;51.430;5.540;2022-10-31T03:30:38;101996.69;;;11.52;100.00
37174;BME280;23068;51.430;5.540;2022-10-31T03:36:42;101990.91;;;11.46;100.00
37174;BME280;23068;51.430;5.540;2022-10-31T03:42:48;101984.50;;;11.36;100.00
37174;BME280;23068;51.430;5.540;2022-10-31T03:48:51;101993.84;;;11.30;100.00
37174;BME280;23068;51.430;5.540;2022-10-31T03:54:55;101984.28;;;11.26;100.00
37174;BME280;23068;51.430;5.540;2022-10-31T04:00:57;101998.16;;;11.20;100.00
37174;BME280;23068;51.430;5.540;2022-10-31T04:06:59;101993.22;;;11.27;100.00
37174;BME280;23068;51.430;5.540;2022-10-31T04:13:05;102000.78;;;11.33;100.00
37174;BME280;23068;51.430;5.540;2022-10-31T04:19:06;102001.44;;;11.36;100.00
37174;BME280;23068;51.430;5.540;2022-10-31T04:25:06;102007.56;;;11.25;100.00
37174;BME280;23068;51.430;5.540;2022-10-31T04:31:09;102004.03;;;11.25;100.00
37174;BME280;23068;51.430;5.540;2022-10-31T04:37:10;102001.16;;;11.28;100.00
37174;BME280;23068;51.430;5.540;2022-10-31T04:43:10;101994.50;;;11.21;100.00
37174;BME280;23068;51.430;5.540;2022-10-31T04:49:11;101992.88;;;11.18;100.00
37174;BME280;23068;51.430;5.540;2022-10-31T04:55:12;101990.44;;;11.15;100.00
37174;BME280;23068;51.430;5.540;2022-10-31T05:01:12;101989.91;;;11.10;100.00
37174;BME280;23068;51.430;5.540;2022-10-31T05:07:13;101991.28;;;11.03;100.00
37174;BME280;23068;51.430;5.540;2022-10-31T05:13:13;101987.88;;;11.01;100.00
37174;BME280;23068;51.430;5.540;2022-10-31T05:19:13;101982.84;;;10.96;100.00
37174;BME280;23068;51.430;5.540;2022-10-31T05:25:14;101988.41;;;10.93;100.00
37174;BME280;23068;51.430;5.540;2022-10-31T05:31:14;101976.09;;;10.78;100.00
37174;BME280;23068;51.430;5.540;2022-10-31T05:37:14;101972.88;;;10.73;100.00
37174;BME280;23068;51.430;5.540;2022-10-31T05:43:15;101968.69;;;10.69;100.00
37174;BME280;23068;51.430;5.540;2022-10-31T05:49:15;101967.63;;;10.59;100.00
37174;BME280;23068;51.430;5.540;2022-10-31T05:55:15;101965.06;;;10.57;100.00
37174;BME280;23068;51.430;5.540;2022-10-31T06:01:15;101959.69;;;10.45;100.00
37174;BME280;23068;51.430;5.540;2022-10-31T06:07:16;101965.16;;;10.43;100.00
37174;BME280;23068;51.430;5.540;2022-10-31T06:13:16;101960.44;;;10.47;100.00
37174;BME280;23068;51.430;5.540;2022-10-31T06:19:16;101945.75;;;10.39;100.00
37174;BME280;23068;51.430;5.540;2022-10-31T06:25:16;101947.03;;;10.34;100.00
37174;BME280;23068;51.430;5.540;2022-10-31T06:31:17;101957.00;;;10.32;100.00
37174;BME280;23068;51.430;5.540;2022-10-31T06:37:17;101954.00;;;10.36;100.00
37174;BME280;23068;51.430;5.540;2022-10-31T06:43:17;101964.59;;;10.38;100.00
37174;BME280;23068;51.430;5.540;2022-10-31T06:49:17;101962.34;;;10.32;100.00
37174;BME280;23068;51.430;5.540;2022-10-31T06:55:18;101952.63;;;10.43;100.00
37174;BME280;23068;51.430;5.540;2022-10-31T07:01:18;101949.00;;;10.45;100.00
37174;BME280;23068;51.430;5.540;2022-10-31T07:07:18;101952.84;;;10.53;100.00
37174;BME280;23068;51.430;5.540;2022-10-31T07:13:19;101952.13;;;10.64;100.00
37174;BME280;23068;51.430;5.540;2022-10-31T07:19:19;101947.41;;;10.67;100.00
37174;BME280;23068;51.430;5.540;2022-10-31T07:25:20;101951.34;;;10.75;100.00
37174;BME280;23068;51.430;5.540;2022-10-31T07:31:20;101952.63;;;10.82;100.00
37174;BME280;23068;51.430;5.540;2022-10-31T07:37:20;101964.63;;;10.89;100.00
37174;BME280;23068;51.430;5.540;2022-10-31T07:43:20;101957.03;;;10.95;100.00
37174;BME280;23068;51.430;5.540;2022-10-31T07:49:21;101960.25;;;11.01;100.00
37174;BME280;23068;51.430;5.540;2022-10-31T07:55:21;101966.31;;;11.15;100.00
37174;BME280;23068;51.430;5.540;2022-10-31T08:01:21;101979.59;;;11.30;100.00
37174;BME280;23068;51.430;5.540;2022-10-31T08:07:21;101970.25;;;11.35;100.00
37174;BME280;23068;51.430;5.540;2022-10-31T08:13:22;101970.84;;;11.51;100.00
37174;BME280;23068;51.430;5.540;2022-10-31T08:19:22;101971.63;;;11.77;100.00
37174;BME280;23068;51.430;5.540;2022-10-31T08:25:23;101962.16;;;11.97;100.00
37174;BME280;23068;51.430;5.540;2022-10-31T08:31:23;101982.50;;;12.24;100.00
37174;BME280;23068;51.430;5.540;2022-10-31T08:37:23;101962.56;;;12.39;100.00
37174;BME280;23068;51.430;5.540;2022-10-31T08:43:24;101944.25;;;12.44;100.00
37174;BME280;23068;51.430;5.540;2022-10-31T08:49:24;101923.78;;;12.54;100.00
37174;BME280;23068;51.430;5.540;2022-10-31T08:55:24;101921.44;;;12.50;100.00
37174;BME280;23068;51.430;5.540;2022-10-31T09:01:24;101925.88;;;12.62;100.00
37174;BME280;23068;51.430;5.540;2022-10-31T09:07:25;101902.34;;;12.88;100.00
37174;BME280;23068;51.430;5.540;2022-10-31T09:13:25;101951.69;;;13.21;100.00
37174;BME280;23068;51.430;5.540;2022-10-31T09:19:26;101923.28;;;13.61;100.00
37174;BME280;23068;51.430;5.540;2022-10-31T09:25:27;101902.44;;;13.75;100.00
37174;BME280;23068;51.430;5.540;2022-10-31T09:31:28;101896.91;;;13.87;100.00
37174;BME280;23068;51.430;5.540;2022-10-31T09:37:28;101861.75;;;14.00;100.00
37174;BME280;23068;51.430;5.540;2022-10-31T09:50:06;101852.84;;;14.20;100.00
37174;BME280;23068;51.430;5.540;2022-10-31T09:56:15;101837.34;;;14.34;100.00
37174;BME280;23068;51.430;5.540;2022-10-31T10:02:35;101846.75;;;14.70;100.00
37174;BME280;23068;51.430;5.540;2022-10-31T10:08:37;101827.97;;;14.99;100.00
37174;BME280;23068;51.430;5.540;2022-10-31T10:28:41;101796.00;;;15.93;100.00
37174;BME280;23068;51.430;5.540;2022-10-31T10:40:21;101758.13;;;16.12;100.00
37174;BME280;23068;51.430;5.540;2022-10-31T10:46:50;101768.81;;;16.13;100.00
37174;BME280;23068;51.430;5.540;2022-10-31T10:53:08;101753.84;;;16.19;100.00
37174;BME280;23068;51.430;5.540;2022-10-31T10:59:17;101762.16;;;15.98;100.00
37174;BME280;23068;51.430;5.540;2022-10-31T11:11:32;101752.19;;;16.08;100.00
37174;BME280;23068;51.430;5.540;2022-10-31T11:17:35;101756.06;;;16.33;100.00
37174;BME280;23068;51.430;5.540;2022-10-31T11:23:36;101717.31;;;16.52;100.00
37174;BME280;23068;51.430;5.540;2022-10-31T11:29:37;101681.81;;;16.92;100.00
37174;BME280;23068;51.430;5.540;2022-10-31T11:35:39;101686.75;;;17.59;100.00
37174;BME280;23068;51.430;5.540;2022-10-31T11:41:40;101663.78;;;17.80;100.00
37174;BME280;23068;51.430;5.540;2022-10-31T11:47:47;101642.84;;;17.91;100.00
37174;BME280;23068;51.430;5.540;2022-10-31T11:53:54;101639.47;;;17.89;100.00
37174;BME280;23068;51.430;5.540;2022-10-31T11:59:58;101620.84;;;17.60;100.00
37174;BME280;23068;51.430;5.540;2022-10-31T12:06:05;101608.31;;;17.33;100.00
37174;BME280;23068;51.430;5.540;2022-10-31T12:37:45;101525.88;;;17.79;100.00
37174;BME280;23068;51.430;5.540;2022-10-31T12:44:06;101496.00;;;17.97;100.00
37174;BME280;23068;51.430;5.540;2022-10-31T12:57:10;101468.78;;;18.47;100.00
37174;BME280;23068;51.430;5.540;2022-10-31T13:16:04;101429.81;;;18.48;100.00
37174;BME280;23068;51.430;5.540;2022-10-31T13:22:25;101405.13;;;18.43;100.00
37174;BME280;23068;51.430;5.540;2022-10-31T13:28:41;101406.81;;;18.20;100.00
37174;BME280;23068;51.430;5.540;2022-10-31T13:34:47;101396.28;;;17.84;100.00
37174;BME280;23068;51.430;5.540;2022-10-31T13:40:54;101369.22;;;17.76;100.00
37174;BME280;23068;51.430;5.540;2022-10-31T13:46:57;101361.94;;;17.76;100.00
37174;BME280;23068;51.430;5.540;2022-10-31T13:59:22;101359.19;;;17.10;100.00
37174;BME280;23068;51.430;5.540;2022-10-31T14:05:34;101349.59;;;16.81;100.00
37174;BME280;23068;51.430;5.540;2022-10-31T14:11:35;101336.13;;;16.89;100.00
37174;BME280;23068;51.430;5.540;2022-10-31T14:17:49;101328.75;;;16.99;100.00
37174;BME280;23068;51.430;5.540;2022-10-31T14:23:52;101325.69;;;17.03;100.00
37174;BME280;23068;51.430;5.540;2022-10-31T14:29:52;101313.16;;;16.93;100.00
37174;BME280;23068;51.430;5.540;2022-10-31T14:36:18;101308.25;;;16.89;100.00
37174;BME280;23068;51.430;5.540;2022-10-31T14:49:03;101300.25;;;16.71;100.00
37174;BME280;23068;51.430;5.540;2022-10-31T14:55:06;101285.78;;;16.88;100.00
37174;BME280;23068;51.430;5.540;2022-10-31T15:01:38;101252.19;;;16.99;100.00
37174;BME280;23068;51.430;5.540;2022-10-31T15:07:52;101252.28;;;16.81;100.00
37174;BME280;23068;51.430;5.540;2022-10-31T15:13:57;101229.28;;;16.69;100.00
37174;BME280;23068;51.430;5.540;2022-10-31T15:19:58;101218.94;;;16.64;100.00
37174;BME280;23068;51.430;5.540;2022-10-31T15:26:03;101207.59;;;16.53;100.00
37174;BME280;23068;51.430;5.540;2022-10-31T15:32:27;101202.53;;;16.50;100.00
37174;BME280;23068;51.430;5.540;2022-10-31T15:38:28;101191.81;;;16.40;100.00
37174;BME280;23068;51.430;5.540;2022-10-31T15:44:31;101184.88;;;16.29;100.00
37174;BME280;23068;51.430;5.540;2022-10-31T15:50:37;101184.47;;;16.16;100.00
37174;BME280;23068;51.430;5.540;2022-10-31T15:56:38;101194.19;;;16.01;100.00
37174;BME280;23068;51.430;5.540;2022-10-31T16:02:39;101188.56;;;15.94;100.00
37174;BME280;23068;51.430;5.540;2022-10-31T16:08:45;101192.53;;;15.82;100.00
37174;BME280;23068;51.430;5.540;2022-10-31T16:14:49;101187.72;;;15.68;100.00
37174;BME280;23068;51.430;5.540;2022-10-31T16:20:52;101177.09;;;15.66;100.00
37174;BME280;23068;51.430;5.540;2022-10-31T16:26:57;101167.53;;;15.54;100.00
37174;BME280;23068;51.430;5.540;2022-10-31T16:33:00;101171.69;;;15.48;100.00
37174;BME280;23068;51.430;5.540;2022-10-31T16:39:00;101167.63;;;15.44;100.00
37174;BME280;23068;51.430;5.540;2022-10-31T16:45:00;101169.16;;;15.47;100.00
37174;BME280;23068;51.430;5.540;2022-10-31T16:51:01;101151.28;;;15.46;100.00
37174;BME280;23068;51.430;5.540;2022-10-31T16:57:03;101158.06;;;15.50;100.00
37174;BME280;23068;51.430;5.540;2022-10-31T17:03:03;101147.88;;;15.44;100.00
37174;BME280;23068;51.430;5.540;2022-10-31T17:09:04;101143.44;;;15.34;100.00
37174;BME280;23068;51.430;5.540;2022-10-31T17:15:06;101149.47;;;15.28;100.00
37174;BME280;23068;51.430;5.540;2022-10-31T17:21:19;101138.63;;;15.20;100.00
37174;BME280;23068;51.430;5.540;2022-10-31T17:27:20;101129.47;;;15.13;100.00
37174;BME280;23068;51.430;5.540;2022-10-31T17:33:20;101120.06;;;14.99;100.00
37174;BME280;23068;51.430;5.540;2022-10-31T17:39:21;101097.63;;;14.91;100.00
37174;BME280;23068;51.430;5.540;2022-10-31T17:45:22;101099.91;;;14.86;100.00
37174;BME280;23068;51.430;5.540;2022-10-31T17:51:23;101103.53;;;14.76;100.00
37174;BME280;23068;51.430;5.540;2022-10-31T17:57:23;101113.47;;;14.76;100.00
37174;BME280;23068;51.430;5.540;2022-10-31T18:03:24;101119.75;;;14.67;100.00
37174;BME280;23068;51.430;5.540;2022-10-31T18:09:25;101115.47;;;14.56;100.00
37174;BME280;23068;51.430;5.540;2022-10-31T18:15:25;101096.78;;;14.45;100.00
37174;BME280;23068;51.430;5.540;2022-10-31T18:21:25;101084.31;;;14.44;100.00
37174;BME280;23068;51.430;5.540;2022-10-31T18:27:26;101075.31;;;14.35;100.00
37174;BME280;23068;51.430;5.540;2022-10-31T18:33:26;101083.31;;;14.27;100.00
37174;BME280;23068;51.430;5.540;2022-10-31T18:39:27;101089.91;;;14.15;100.00
37174;BME280;23068;51.430;5.540;2022-10-31T18:45:27;101079.56;;;14.10;100.00
37174;BME280;23068;51.430;5.540;2022-10-31T18:51:28;101081.50;;;14.00;100.00
37174;BME280;23068;51.430;5.540;2022-10-31T18:57:28;101082.66;;;13.88;100.00
37174;BME280;23068;51.430;5.540;2022-10-31T19:03:28;101073.66;;;13.79;100.00
37174;BME280;23068;51.430;5.540;2022-10-31T19:09:28;101078.47;;;13.76;100.00
37174;BME280;23068;51.430;5.540;2022-10-31T19:15:29;101072.00;;;13.68;100.00
37174;BME280;23068;51.430;5.540;2022-10-31T19:21:29;101069.59;;;13.65;100.00
37174;BME280;23068;51.430;5.540;2022-10-31T19:27:30;101072.88;;;13.59;100.00
37174;BME280;23068;51.430;5.540;2022-10-31T19:33:30;101064.41;;;13.54;100.00
37174;BME280;23068;51.430;5.540;2022-10-31T19:39:30;101064.56;;;13.53;100.00
37174;BME280;23068;51.430;5.540;2022-10-31T19:45:30;101060.34;;;13.50;100.00
37174;BME280;23068;51.430;5.540;2022-10-31T19:51:31;101048.59;;;13.41;100.00
37174;BME280;23068;51.430;5.540;2022-10-31T19:57:32;101047.16;;;13.47;100.00
37174;BME280;23068;51.430;5.540;2022-10-31T20:03:33;101027.91;;;13.52;100.00
37174;BME280;23068;51.430;5.540;2022-10-31T20:09:33;101031.28;;;13.54;100.00
37174;BME280;23068;51.430;5.540;2022-10-31T20:15:33;101020.84;;;13.51;100.00
37174;BME280;23068;51.430;5.540;2022-10-31T20:21:38;101020.13;;;13.49;100.00
37174;BME280;23068;51.430;5.540;2022-10-31T20:27:39;101003.31;;;13.47;100.00
37174;BME280;23068;51.430;5.540;2022-10-31T20:33:39;100993.66;;;13.54;100.00
37174;BME280;23068;51.430;5.540;2022-10-31T20:39:40;100985.44;;;13.55;100.00
37174;BME280;23068;51.430;5.540;2022-10-31T20:45:40;100974.25;;;13.60;100.00
37174;BME280;23068;51.430;5.540;2022-10-31T20:51:40;100971.31;;;13.53;100.00
37174;BME280;23068;51.430;5.540;2022-10-31T20:57:41;100974.59;;;13.47;100.00
37174;BME280;23068;51.430;5.540;2022-10-31T21:03:42;100965.09;;;13.53;100.00
37174;BME280;23068;51.430;5.540;2022-10-31T21:09:42;100958.47;;;13.47;100.00
37174;BME280;23068;51.430;5.540;2022-10-31T21:15:42;100958.06;;;13.42;100.00
37174;BME280;23068;51.430;5.540;2022-10-31T21:21:43;100940.13;;;13.42;100.00
37174;BME280;23068;51.430;5.540;2022-10-31T21:27:43;100934.38;;;13.55;100.00
37174;BME280;23068;51.430;5.540;2022-10-31T21:33:44;100929.56;;;13.59;100.00
37174;BME280;23068;51.430;5.540;2022-10-31T21:39:44;100924.84;;;13.61;100.00
37174;BME280;23068;51.430;5.540;2022-10-31T21:45:45;100917.94;;;13.58;100.00
